sensor_id;sensor_type;location;lat;lon;timestamp;temperature;humidity
17208;DHT22;8720;48.488;9.202;2022-09-03T00:01:05;21.30;40.60
17208;DHT22;8720;48.488;9.202;2022-09-03T00:03:44;21.30;40.60
17208;DHT22;8720;48.488;9.202;2022-09-03T00:06:19;21.20;40.70
17208;DHT22;8720;48.488;9.202;2022-09-03T00:08:56;21.20;40.80
17208;DHT22;8720;48.488;9.202;2022-09-03T00:11:29;21.20;41.00
17208;DHT22;8720;48.488;9.202;2022-09-03T00:14:05;21.20;40.90
17208;DHT22;8720;48.488;9.202;2022-09-03T00:16:47;21.20;40.90
17208;DHT22;8720;48.488;9.202;2022-09-03T00:19:21;21.20;41.00
17208;DHT22;8720;48.488;9.202;2022-09-03T00:21:55;21.10;40.70
17208;DHT22;8720;48.488;9.202;2022-09-03T00:24:30;21.20;40.90
17208;DHT22;8720;48.488;9.202;2022-09-03T00:27:05;21.20;40.90
17208;DHT22;8720;48.488;9.202;2022-09-03T00:29:42;21.10;40.90
17208;DHT22;8720;48.488;9.202;2022-09-03T00:32:19;21.10;41.00
17208;DHT22;8720;48.488;9.202;2022-09-03T00:34:55;21.10;41.00
17208;DHT22;8720;48.488;9.202;2022-09-03T00:37:26;21.10;41.00
17208;DHT22;8720;48.488;9.202;2022-09-03T00:39:56;21.10;41.10
17208;DHT22;8720;48.488;9.202;2022-09-03T00:42:34;21.10;41.80
17208;DHT22;8720;48.488;9.202;2022-09-03T00:45:20;21.10;41.30
17208;DHT22;8720;48.488;9.202;2022-09-03T00:48:05;21.10;41.20
17208;DHT22;8720;48.488;9.202;2022-09-03T00:50:51;21.20;41.50
17208;DHT22;8720;48.488;9.202;2022-09-03T00:53:37;21.20;41.50
17208;DHT22;8720;48.488;9.202;2022-09-03T00:56:21;21.10;41.30
17208;DHT22;8720;48.488;9.202;2022-09-03T00:59:04;21.10;41.40
17208;DHT22;8720;48.488;9.202;2022-09-03T01:01:45;21.10;41.50
17208;DHT22;8720;48.488;9.202;2022-09-03T01:04:27;21.10;41.60
17208;DHT22;8720;48.488;9.202;2022-09-03T01:07:10;21.10;41.70
17208;DHT22;8720;48.488;9.202;2022-09-03T01:09:54;21.10;41.60
17208;DHT22;8720;48.488;9.202;2022-09-03T01:12:38;21.10;41.70
17208;DHT22;8720;48.488;9.202;2022-09-03T01:15:18;21.10;41.70
17208;DHT22;8720;48.488;9.202;2022-09-03T01:18:10;21.10;41.80
17208;DHT22;8720;48.488;9.202;2022-09-03T01:20:54;21.00;41.90
17208;DHT22;8720;48.488;9.202;2022-09-03T01:23:52;21.00;42.00
17208;DHT22;8720;48.488;9.202;2022-09-03T01:26:46;21.00;41.90
17208;DHT22;8720;48.488;9.202;2022-09-03T01:29:31;21.00;41.90
17208;DHT22;8720;48.488;9.202;2022-09-03T01:32:10;21.00;42.10
17208;DHT22;8720;48.488;9.202;2022-09-03T01:34:54;21.00;42.10
17208;DHT22;8720;48.488;9.202;2022-09-03T01:37:36;20.90;42.20
17208;DHT22;8720;48.488;9.202;2022-09-03T01:40:18;20.90;42.40
17208;DHT22;8720;48.488;9.202;2022-09-03T01:43:04;20.90;42.30
17208;DHT22;8720;48.488;9.202;2022-09-03T01:45:50;20.90;42.30
17208;DHT22;8720;48.488;9.202;2022-09-03T01:48:32;20.80;42.50
17208;DHT22;8720;48.488;9.202;2022-09-03T01:51:17;20.80;42.50
17208;DHT22;8720;48.488;9.202;2022-09-03T01:57:22;20.80;42.60
17208;DHT22;8720;48.488;9.202;2022-09-03T02:00:03;20.80;42.60
17208;DHT22;8720;48.488;9.202;2022-09-03T02:03:01;20.70;42.50
17208;DHT22;8720;48.488;9.202;2022-09-03T02:05:32;20.70;42.60
17208;DHT22;8720;48.488;9.202;2022-09-03T02:08:02;20.70;42.70
17208;DHT22;8720;48.488;9.202;2022-09-03T02:10:32;20.70;42.80
17208;DHT22;8720;48.488;9.202;2022-09-03T02:13:08;20.70;42.80
17208;DHT22;8720;48.488;9.202;2022-09-03T02:15:40;20.70;42.90
17208;DHT22;8720;48.488;9.202;2022-09-03T02:18:16;20.60;42.80
17208;DHT22;8720;48.488;9.202;2022-09-03T02:20:46;20.60;43.20
17208;DHT22;8720;48.488;9.202;2022-09-03T02:23:16;20.60;43.10
17208;DHT22;8720;48.488;9.202;2022-09-03T02:25:46;20.60;43.00
17208;DHT22;8720;48.488;9.202;2022-09-03T02:28:15;20.60;43.30
17208;DHT22;8720;48.488;9.202;2022-09-03T02:30:43;20.60;43.30
17208;DHT22;8720;48.488;9.202;2022-09-03T02:33:11;20.50;43.20
17208;DHT22;8720;48.488;9.202;2022-09-03T02:35:41;20.50;43.20
17208;DHT22;8720;48.488;9.202;2022-09-03T02:38:10;20.50;43.60
17208;DHT22;8720;48.488;9.202;2022-09-03T02:40:38;20.50;43.80
17208;DHT22;8720;48.488;9.202;2022-09-03T02:43:10;20.40;43.90
17208;DHT22;8720;48.488;9.202;2022-09-03T02:45:44;20.40;44.00
17208;DHT22;8720;48.488;9.202;2022-09-03T02:48:19;20.30;43.90
17208;DHT22;8720;48.488;9.202;2022-09-03T02:50:50;20.20;44.00
17208;DHT22;8720;48.488;9.202;2022-09-03T02:53:17;20.20;44.00
17208;DHT22;8720;48.488;9.202;2022-09-03T02:55:44;20.10;43.90
17208;DHT22;8720;48.488;9.202;2022-09-03T02:58:12;20.10;44.20
17208;DHT22;8720;48.488;9.202;2022-09-03T03:00:40;20.00;44.10
17208;DHT22;8720;48.488;9.202;2022-09-03T03:03:07;20.00;44.20
17208;DHT22;8720;48.488;9.202;2022-09-03T03:05:41;19.90;44.10
17208;DHT22;8720;48.488;9.202;2022-09-03T03:08:11;19.90;44.50
17208;DHT22;8720;48.488;9.202;2022-09-03T03:10:39;19.90;44.40
17208;DHT22;8720;48.488;9.202;2022-09-03T03:13:07;19.80;44.40
17208;DHT22;8720;48.488;9.202;2022-09-03T03:15:35;19.80;44.60
17208;DHT22;8720;48.488;9.202;2022-09-03T03:18:02;19.80;44.60
17208;DHT22;8720;48.488;9.202;2022-09-03T03:20:29;19.80;44.80
17208;DHT22;8720;48.488;9.202;2022-09-03T03:23:00;19.80;45.00
17208;DHT22;8720;48.488;9.202;2022-09-03T03:25:30;19.80;45.10
17208;DHT22;8720;48.488;9.202;2022-09-03T03:27:58;19.70;45.20
17208;DHT22;8720;48.488;9.202;2022-09-03T03:30:25;19.80;45.30
17208;DHT22;8720;48.488;9.202;2022-09-03T03:32:54;19.70;45.30
17208;DHT22;8720;48.488;9.202;2022-09-03T03:35:21;19.70;45.40
17208;DHT22;8720;48.488;9.202;2022-09-03T03:37:49;19.70;45.40
17208;DHT22;8720;48.488;9.202;2022-09-03T03:40:18;19.70;45.40
17208;DHT22;8720;48.488;9.202;2022-09-03T03:42:45;19.80;45.70
17208;DHT22;8720;48.488;9.202;2022-09-03T03:45:14;19.80;45.60
17208;DHT22;8720;48.488;9.202;2022-09-03T03:47:42;19.80;45.60
17208;DHT22;8720;48.488;9.202;2022-09-03T03:50:09;19.80;45.70
17208;DHT22;8720;48.488;9.202;2022-09-03T03:52:36;19.80;45.70
17208;DHT22;8720;48.488;9.202;2022-09-03T03:55:04;19.80;45.60
17208;DHT22;8720;48.488;9.202;2022-09-03T03:57:33;19.90;45.80
17208;DHT22;8720;48.488;9.202;2022-09-03T04:00:01;19.90;45.80
17208;DHT22;8720;48.488;9.202;2022-09-03T04:02:40;19.90;45.80
17208;DHT22;8720;48.488;9.202;2022-09-03T04:05:08;19.90;45.80
17208;DHT22;8720;48.488;9.202;2022-09-03T04:07:35;20.00;45.80
17208;DHT22;8720;48.488;9.202;2022-09-03T04:10:03;20.00;46.00
17208;DHT22;8720;48.488;9.202;2022-09-03T04:12:32;20.00;46.00
17208;DHT22;8720;48.488;9.202;2022-09-03T04:14:59;20.00;46.00
17208;DHT22;8720;48.488;9.202;2022-09-03T04:17:27;20.10;46.10
17208;DHT22;8720;48.488;9.202;2022-09-03T04:19:54;20.10;46.10
17208;DHT22;8720;48.488;9.202;2022-09-03T04:22:21;20.10;46.30
17208;DHT22;8720;48.488;9.202;2022-09-03T04:24:48;20.10;46.30
17208;DHT22;8720;48.488;9.202;2022-09-03T04:27:15;20.10;46.30
17208;DHT22;8720;48.488;9.202;2022-09-03T04:29:44;20.10;46.30
17208;DHT22;8720;48.488;9.202;2022-09-03T04:32:11;20.10;46.50
17208;DHT22;8720;48.488;9.202;2022-09-03T04:34:56;20.10;46.40
17208;DHT22;8720;48.488;9.202;2022-09-03T04:37:23;20.20;46.60
17208;DHT22;8720;48.488;9.202;2022-09-03T04:39:50;20.20;46.60
17208;DHT22;8720;48.488;9.202;2022-09-03T04:42:18;20.20;46.60
17208;DHT22;8720;48.488;9.202;2022-09-03T04:44:48;20.20;46.60
17208;DHT22;8720;48.488;9.202;2022-09-03T04:47:15;20.10;49.00
17208;DHT22;8720;48.488;9.202;2022-09-03T04:49:42;20.10;48.30
17208;DHT22;8720;48.488;9.202;2022-09-03T04:52:09;20.10;48.00
17208;DHT22;8720;48.488;9.202;2022-09-03T04:54:36;20.10;47.90
17208;DHT22;8720;48.488;9.202;2022-09-03T04:57:04;20.20;47.80
17208;DHT22;8720;48.488;9.202;2022-09-03T04:59:31;20.20;47.70
17208;DHT22;8720;48.488;9.202;2022-09-03T05:01:59;20.20;47.70
17208;DHT22;8720;48.488;9.202;2022-09-03T05:04:27;20.20;47.90
17208;DHT22;8720;48.488;9.202;2022-09-03T05:06:54;20.20;48.00
17208;DHT22;8720;48.488;9.202;2022-09-03T05:09:22;20.20;48.00
17208;DHT22;8720;48.488;9.202;2022-09-03T05:11:50;20.20;48.10
17208;DHT22;8720;48.488;9.202;2022-09-03T05:14:17;20.20;48.10
17208;DHT22;8720;48.488;9.202;2022-09-03T05:16:44;20.20;48.10
17208;DHT22;8720;48.488;9.202;2022-09-03T05:19:13;20.20;48.20
17208;DHT22;8720;48.488;9.202;2022-09-03T05:21:41;20.30;48.60
17208;DHT22;8720;48.488;9.202;2022-09-03T05:24:08;20.30;48.70
17208;DHT22;8720;48.488;9.202;2022-09-03T05:26:37;20.30;48.70
17208;DHT22;8720;48.488;9.202;2022-09-03T05:29:07;20.30;48.80
17208;DHT22;8720;48.488;9.202;2022-09-03T05:31:36;20.30;48.60
17208;DHT22;8720;48.488;9.202;2022-09-03T05:34:05;20.20;48.70
17208;DHT22;8720;48.488;9.202;2022-09-03T05:36:35;20.20;48.70
17208;DHT22;8720;48.488;9.202;2022-09-03T05:39:03;20.20;48.90
17208;DHT22;8720;48.488;9.202;2022-09-03T05:41:31;20.30;48.90
17208;DHT22;8720;48.488;9.202;2022-09-03T05:43:59;20.30;49.00
17208;DHT22;8720;48.488;9.202;2022-09-03T05:46:28;20.30;49.20
17208;DHT22;8720;48.488;9.202;2022-09-03T05:48:58;20.30;49.30
17208;DHT22;8720;48.488;9.202;2022-09-03T05:51:26;20.30;49.20
17208;DHT22;8720;48.488;9.202;2022-09-03T05:53:58;20.40;49.40
17208;DHT22;8720;48.488;9.202;2022-09-03T05:56:28;20.40;49.80
17208;DHT22;8720;48.488;9.202;2022-09-03T05:58:57;20.40;49.60
17208;DHT22;8720;48.488;9.202;2022-09-03T06:01:27;20.50;49.40
17208;DHT22;8720;48.488;9.202;2022-09-03T06:03:57;20.50;49.40
17208;DHT22;8720;48.488;9.202;2022-09-03T06:06:26;20.60;49.50
17208;DHT22;8720;48.488;9.202;2022-09-03T06:08:59;20.60;49.40
17208;DHT22;8720;48.488;9.202;2022-09-03T06:11:28;20.70;49.60
17208;DHT22;8720;48.488;9.202;2022-09-03T06:13:59;20.70;49.60
17208;DHT22;8720;48.488;9.202;2022-09-03T06:16:28;20.80;50.00
17208;DHT22;8720;48.488;9.202;2022-09-03T06:18:56;20.80;49.70
17208;DHT22;8720;48.488;9.202;2022-09-03T06:21:24;20.90;49.80
17208;DHT22;8720;48.488;9.202;2022-09-03T06:23:53;20.90;49.80
17208;DHT22;8720;48.488;9.202;2022-09-03T06:26:23;21.00;50.00
17208;DHT22;8720;48.488;9.202;2022-09-03T06:28:52;21.00;50.20
17208;DHT22;8720;48.488;9.202;2022-09-03T06:31:22;21.10;50.30
17208;DHT22;8720;48.488;9.202;2022-09-03T06:33:50;21.10;50.30
17208;DHT22;8720;48.488;9.202;2022-09-03T06:36:20;21.20;50.00
17208;DHT22;8720;48.488;9.202;2022-09-03T06:38:51;21.30;50.00
17208;DHT22;8720;48.488;9.202;2022-09-03T06:41:21;21.40;50.00
17208;DHT22;8720;48.488;9.202;2022-09-03T06:43:53;21.50;49.60
17208;DHT22;8720;48.488;9.202;2022-09-03T06:46:28;21.70;49.60
17208;DHT22;8720;48.488;9.202;2022-09-03T06:48:57;21.80;49.60
17208;DHT22;8720;48.488;9.202;2022-09-03T06:51:26;21.90;49.90
17208;DHT22;8720;48.488;9.202;2022-09-03T06:53:58;22.00;49.90
17208;DHT22;8720;48.488;9.202;2022-09-03T06:56:28;22.10;49.70
17208;DHT22;8720;48.488;9.202;2022-09-03T06:58:58;22.10;49.50
17208;DHT22;8720;48.488;9.202;2022-09-03T07:01:31;22.20;49.50
17208;DHT22;8720;48.488;9.202;2022-09-03T07:04:00;22.20;49.30
17208;DHT22;8720;48.488;9.202;2022-09-03T07:06:31;22.20;49.30
17208;DHT22;8720;48.488;9.202;2022-09-03T07:09:02;22.30;49.10
17208;DHT22;8720;48.488;9.202;2022-09-03T07:11:31;22.40;49.10
17208;DHT22;8720;48.488;9.202;2022-09-03T07:14:01;22.40;49.00
17208;DHT22;8720;48.488;9.202;2022-09-03T07:16:31;22.40;49.00
17208;DHT22;8720;48.488;9.202;2022-09-03T07:19:01;22.40;48.90
17208;DHT22;8720;48.488;9.202;2022-09-03T07:21:30;22.50;49.00
17208;DHT22;8720;48.488;9.202;2022-09-03T07:23:59;22.50;49.00
17208;DHT22;8720;48.488;9.202;2022-09-03T07:26:29;22.50;49.00
17208;DHT22;8720;48.488;9.202;2022-09-03T07:28:58;22.50;49.20
17208;DHT22;8720;48.488;9.202;2022-09-03T07:31:27;22.50;49.20
17208;DHT22;8720;48.488;9.202;2022-09-03T07:33:57;22.60;49.20
17208;DHT22;8720;48.488;9.202;2022-09-03T07:36:27;22.60;49.20
17208;DHT22;8720;48.488;9.202;2022-09-03T07:38:57;22.60;49.10
17208;DHT22;8720;48.488;9.202;2022-09-03T07:41:25;22.70;49.30
17208;DHT22;8720;48.488;9.202;2022-09-03T07:43:55;22.70;49.30
17208;DHT22;8720;48.488;9.202;2022-09-03T07:46:24;22.70;49.00
17208;DHT22;8720;48.488;9.202;2022-09-03T07:48:54;22.80;49.20
17208;DHT22;8720;48.488;9.202;2022-09-03T07:51:24;22.80;49.10
17208;DHT22;8720;48.488;9.202;2022-09-03T07:53:54;22.90;49.20
17208;DHT22;8720;48.488;9.202;2022-09-03T07:56:24;22.90;49.40
17208;DHT22;8720;48.488;9.202;2022-09-03T07:58:53;23.00;49.80
17208;DHT22;8720;48.488;9.202;2022-09-03T08:01:23;23.00;49.60
17208;DHT22;8720;48.488;9.202;2022-09-03T08:03:52;23.10;49.50
17208;DHT22;8720;48.488;9.202;2022-09-03T08:06:21;23.10;49.40
17208;DHT22;8720;48.488;9.202;2022-09-03T08:08:54;23.20;49.50
17208;DHT22;8720;48.488;9.202;2022-09-03T08:11:24;23.30;49.60
17208;DHT22;8720;48.488;9.202;2022-09-03T08:13:56;23.40;49.40
17208;DHT22;8720;48.488;9.202;2022-09-03T08:16:28;23.50;49.40
17208;DHT22;8720;48.488;9.202;2022-09-03T08:18:56;23.60;49.20
17208;DHT22;8720;48.488;9.202;2022-09-03T08:21:25;23.60;49.00
17208;DHT22;8720;48.488;9.202;2022-09-03T08:23:55;23.70;49.10
17208;DHT22;8720;48.488;9.202;2022-09-03T08:26:28;23.70;48.80
17208;DHT22;8720;48.488;9.202;2022-09-03T08:28:58;23.70;48.60
17208;DHT22;8720;48.488;9.202;2022-09-03T08:31:26;23.70;49.10
17208;DHT22;8720;48.488;9.202;2022-09-03T08:33:56;23.70;49.10
17208;DHT22;8720;48.488;9.202;2022-09-03T08:36:29;23.60;48.90
17208;DHT22;8720;48.488;9.202;2022-09-03T08:38:58;23.60;49.00
17208;DHT22;8720;48.488;9.202;2022-09-03T08:41:37;23.60;49.40
17208;DHT22;8720;48.488;9.202;2022-09-03T08:44:32;23.70;49.60
17208;DHT22;8720;48.488;9.202;2022-09-03T08:47:10;23.80;49.50
17208;DHT22;8720;48.488;9.202;2022-09-03T08:49:45;23.90;49.60
17208;DHT22;8720;48.488;9.202;2022-09-03T08:52:27;24.10;49.60
17208;DHT22;8720;48.488;9.202;2022-09-03T08:55:19;24.20;48.90
17208;DHT22;8720;48.488;9.202;2022-09-03T08:57:56;24.30;48.40
17208;DHT22;8720;48.488;9.202;2022-09-03T09:00:46;24.40;48.10
17208;DHT22;8720;48.488;9.202;2022-09-03T09:03:33;24.50;47.60
17208;DHT22;8720;48.488;9.202;2022-09-03T09:06:16;24.60;47.80
17208;DHT22;8720;48.488;9.202;2022-09-03T09:08:58;24.70;47.80
17208;DHT22;8720;48.488;9.202;2022-09-03T09:11:47;24.80;47.50
17208;DHT22;8720;48.488;9.202;2022-09-03T09:14:29;24.90;47.00
17208;DHT22;8720;48.488;9.202;2022-09-03T09:17:25;24.90;46.80
17208;DHT22;8720;48.488;9.202;2022-09-03T09:20:14;25.00;47.50
17208;DHT22;8720;48.488;9.202;2022-09-03T09:22:51;25.10;46.40
17208;DHT22;8720;48.488;9.202;2022-09-03T09:25:23;25.10;46.40
17208;DHT22;8720;48.488;9.202;2022-09-03T09:27:57;25.10;46.20
17208;DHT22;8720;48.488;9.202;2022-09-03T09:30:28;25.20;46.00
17208;DHT22;8720;48.488;9.202;2022-09-03T09:32:57;25.20;46.40
17208;DHT22;8720;48.488;9.202;2022-09-03T09:35:26;25.30;46.00
17208;DHT22;8720;48.488;9.202;2022-09-03T09:37:55;25.40;46.20
17208;DHT22;8720;48.488;9.202;2022-09-03T09:40:30;25.40;45.70
17208;DHT22;8720;48.488;9.202;2022-09-03T09:43:06;25.50;45.60
17208;DHT22;8720;48.488;9.202;2022-09-03T09:45:38;25.60;45.60
17208;DHT22;8720;48.488;9.202;2022-09-03T09:48:19;25.60;45.40
17208;DHT22;8720;48.488;9.202;2022-09-03T09:51:03;25.70;44.90
17208;DHT22;8720;48.488;9.202;2022-09-03T09:53:32;25.80;45.20
17208;DHT22;8720;48.488;9.202;2022-09-03T09:56:00;25.80;45.50
17208;DHT22;8720;48.488;9.202;2022-09-03T09:58:29;25.80;45.20
17208;DHT22;8720;48.488;9.202;2022-09-03T10:01:00;25.90;45.00
17208;DHT22;8720;48.488;9.202;2022-09-03T10:03:46;26.10;45.10
17208;DHT22;8720;48.488;9.202;2022-09-03T10:06:16;26.20;44.40
17208;DHT22;8720;48.488;9.202;2022-09-03T10:09:08;26.20;44.80
17208;DHT22;8720;48.488;9.202;2022-09-03T10:11:40;26.30;44.40
17208;DHT22;8720;48.488;9.202;2022-09-03T10:14:17;26.40;44.50
17208;DHT22;8720;48.488;9.202;2022-09-03T10:16:58;26.50;44.40
17208;DHT22;8720;48.488;9.202;2022-09-03T10:19:39;26.50;46.20
17208;DHT22;8720;48.488;9.202;2022-09-03T10:22:32;26.60;46.40
17208;DHT22;8720;48.488;9.202;2022-09-03T10:25:07;26.70;46.00
17208;DHT22;8720;48.488;9.202;2022-09-03T10:27:36;26.80;45.60
17208;DHT22;8720;48.488;9.202;2022-09-03T10:30:05;26.80;45.90
17208;DHT22;8720;48.488;9.202;2022-09-03T10:32:38;26.80;44.60
17208;DHT22;8720;48.488;9.202;2022-09-03T10:35:22;26.80;44.60
17208;DHT22;8720;48.488;9.202;2022-09-03T10:38:02;26.80;44.50
17208;DHT22;8720;48.488;9.202;2022-09-03T10:40:38;26.80;45.10
17208;DHT22;8720;48.488;9.202;2022-09-03T10:43:19;26.80;44.40
17208;DHT22;8720;48.488;9.202;2022-09-03T10:46:02;26.70;45.30
17208;DHT22;8720;48.488;9.202;2022-09-03T10:51:44;26.70;44.40
17208;DHT22;8720;48.488;9.202;2022-09-03T10:54:28;26.70;44.40
17208;DHT22;8720;48.488;9.202;2022-09-03T10:57:09;26.70;44.30
17208;DHT22;8720;48.488;9.202;2022-09-03T10:59:59;26.80;43.80
17208;DHT22;8720;48.488;9.202;2022-09-03T11:06:02;26.80;44.70
17208;DHT22;8720;48.488;9.202;2022-09-03T11:08:40;26.80;43.90
17208;DHT22;8720;48.488;9.202;2022-09-03T11:11:14;26.90;43.70
17208;DHT22;8720;48.488;9.202;2022-09-03T11:13:50;26.90;43.70
17208;DHT22;8720;48.488;9.202;2022-09-03T11:16:25;26.90;44.30
17208;DHT22;8720;48.488;9.202;2022-09-03T11:19:01;26.90;44.00
17208;DHT22;8720;48.488;9.202;2022-09-03T11:21:33;26.90;43.50
17208;DHT22;8720;48.488;9.202;2022-09-03T11:24:11;26.90;43.40
17208;DHT22;8720;48.488;9.202;2022-09-03T11:26:43;26.80;43.20
17208;DHT22;8720;48.488;9.202;2022-09-03T11:29:18;26.70;43.40
17208;DHT22;8720;48.488;9.202;2022-09-03T11:31:56;26.60;45.60
17208;DHT22;8720;48.488;9.202;2022-09-03T11:34:32;26.50;45.90
17208;DHT22;8720;48.488;9.202;2022-09-03T11:37:20;26.40;46.10
17208;DHT22;8720;48.488;9.202;2022-09-03T11:39:56;26.30;47.10
17208;DHT22;8720;48.488;9.202;2022-09-03T11:42:30;26.20;47.50
17208;DHT22;8720;48.488;9.202;2022-09-03T11:45:13;26.00;47.80
17208;DHT22;8720;48.488;9.202;2022-09-03T11:47:49;25.80;48.10
17208;DHT22;8720;48.488;9.202;2022-09-03T11:50:20;25.70;46.80
17208;DHT22;8720;48.488;9.202;2022-09-03T11:52:50;25.40;47.30
17208;DHT22;8720;48.488;9.202;2022-09-03T11:55:29;25.10;47.10
17208;DHT22;8720;48.488;9.202;2022-09-03T11:58:11;24.60;47.30
17208;DHT22;8720;48.488;9.202;2022-09-03T12:00:45;24.10;47.40
17208;DHT22;8720;48.488;9.202;2022-09-03T12:03:15;23.70;47.10
17208;DHT22;8720;48.488;9.202;2022-09-03T12:05:48;23.30;47.40
17208;DHT22;8720;48.488;9.202;2022-09-03T12:08:46;22.90;47.80
17208;DHT22;8720;48.488;9.202;2022-09-03T12:11:37;22.40;48.40
17208;DHT22;8720;48.488;9.202;2022-09-03T12:14:19;22.10;49.20
17208;DHT22;8720;48.488;9.202;2022-09-03T12:17:03;21.70;49.60
17208;DHT22;8720;48.488;9.202;2022-09-03T12:19:43;21.40;50.10
17208;DHT22;8720;48.488;9.202;2022-09-03T12:22:17;21.20;51.10
17208;DHT22;8720;48.488;9.202;2022-09-03T12:24:45;21.00;51.50
17208;DHT22;8720;48.488;9.202;2022-09-03T12:27:18;20.80;51.80
17208;DHT22;8720;48.488;9.202;2022-09-03T12:29:52;20.50;52.30
17208;DHT22;8720;48.488;9.202;2022-09-03T12:32:29;20.40;52.70
17208;DHT22;8720;48.488;9.202;2022-09-03T12:35:11;20.20;53.40
17208;DHT22;8720;48.488;9.202;2022-09-03T12:37:41;20.10;54.00
17208;DHT22;8720;48.488;9.202;2022-09-03T12:40:18;20.00;53.90
17208;DHT22;8720;48.488;9.202;2022-09-03T12:42:49;19.90;55.50
17208;DHT22;8720;48.488;9.202;2022-09-03T12:45:19;19.80;55.40
17208;DHT22;8720;48.488;9.202;2022-09-03T12:47:48;19.80;55.90
17208;DHT22;8720;48.488;9.202;2022-09-03T12:50:20;19.80;56.30
17208;DHT22;8720;48.488;9.202;2022-09-03T12:52:52;19.80;57.60
17208;DHT22;8720;48.488;9.202;2022-09-03T12:55:28;19.90;58.60
17208;DHT22;8720;48.488;9.202;2022-09-03T12:58:07;19.90;59.20
17208;DHT22;8720;48.488;9.202;2022-09-03T13:00:41;20.00;59.70
17208;DHT22;8720;48.488;9.202;2022-09-03T13:03:15;20.10;59.00
17208;DHT22;8720;48.488;9.202;2022-09-03T13:05:53;20.20;59.30
17208;DHT22;8720;48.488;9.202;2022-09-03T13:08:24;20.30;59.50
17208;DHT22;8720;48.488;9.202;2022-09-03T13:10:57;20.40;59.60
17208;DHT22;8720;48.488;9.202;2022-09-03T13:13:30;20.50;60.20
17208;DHT22;8720;48.488;9.202;2022-09-03T13:16:41;20.50;59.70
17208;DHT22;8720;48.488;9.202;2022-09-03T13:19:51;20.60;60.50
17208;DHT22;8720;48.488;9.202;2022-09-03T13:22:36;20.70;60.80
17208;DHT22;8720;48.488;9.202;2022-09-03T13:25:15;20.80;60.70
17208;DHT22;8720;48.488;9.202;2022-09-03T13:27:57;20.80;60.80
17208;DHT22;8720;48.488;9.202;2022-09-03T13:30:36;20.90;60.40
17208;DHT22;8720;48.488;9.202;2022-09-03T13:33:19;21.00;60.10
17208;DHT22;8720;48.488;9.202;2022-09-03T13:35:53;21.10;61.70
17208;DHT22;8720;48.488;9.202;2022-09-03T13:38:30;21.20;61.30
17208;DHT22;8720;48.488;9.202;2022-09-03T13:41:08;21.20;61.20
17208;DHT22;8720;48.488;9.202;2022-09-03T13:43:47;21.30;60.40
17208;DHT22;8720;48.488;9.202;2022-09-03T13:46:29;21.50;61.20
17208;DHT22;8720;48.488;9.202;2022-09-03T13:49:09;21.50;60.50
17208;DHT22;8720;48.488;9.202;2022-09-03T13:52:07;21.60;59.60
17208;DHT22;8720;48.488;9.202;2022-09-03T13:54:51;21.70;59.50
17208;DHT22;8720;48.488;9.202;2022-09-03T13:57:31;21.80;60.20
17208;DHT22;8720;48.488;9.202;2022-09-03T14:00:06;21.90;61.10
17208;DHT22;8720;48.488;9.202;2022-09-03T14:02:52;21.90;61.20
17208;DHT22;8720;48.488;9.202;2022-09-03T14:05:40;22.00;59.70
17208;DHT22;8720;48.488;9.202;2022-09-03T14:08:22;22.10;59.70
17208;DHT22;8720;48.488;9.202;2022-09-03T14:11:00;22.20;59.90
17208;DHT22;8720;48.488;9.202;2022-09-03T14:13:47;22.20;58.70
17208;DHT22;8720;48.488;9.202;2022-09-03T14:16:28;22.30;59.00
17208;DHT22;8720;48.488;9.202;2022-09-03T14:19:10;22.40;59.60
17208;DHT22;8720;48.488;9.202;2022-09-03T14:21:45;22.40;59.50
17208;DHT22;8720;48.488;9.202;2022-09-03T14:24:23;22.50;59.60
17208;DHT22;8720;48.488;9.202;2022-09-03T14:26:58;22.50;59.30
17208;DHT22;8720;48.488;9.202;2022-09-03T14:29:32;22.50;58.80
17208;DHT22;8720;48.488;9.202;2022-09-03T14:32:29;22.60;58.30
17208;DHT22;8720;48.488;9.202;2022-09-03T14:35:22;22.60;57.10
17208;DHT22;8720;48.488;9.202;2022-09-03T14:38:31;22.70;57.90
17208;DHT22;8720;48.488;9.202;2022-09-03T14:41:35;22.70;57.90
17208;DHT22;8720;48.488;9.202;2022-09-03T14:47:54;22.90;57.40
17208;DHT22;8720;48.488;9.202;2022-09-03T14:50:48;23.00;58.40
17208;DHT22;8720;48.488;9.202;2022-09-03T14:53:46;23.00;56.90
17208;DHT22;8720;48.488;9.202;2022-09-03T14:56:39;23.00;56.60
17208;DHT22;8720;48.488;9.202;2022-09-03T14:59:33;23.00;57.90
17208;DHT22;8720;48.488;9.202;2022-09-03T15:02:37;23.00;56.90
17208;DHT22;8720;48.488;9.202;2022-09-03T15:05:43;23.00;57.80
17208;DHT22;8720;48.488;9.202;2022-09-03T15:08:34;23.10;58.20
17208;DHT22;8720;48.488;9.202;2022-09-03T15:11:18;23.10;57.90
17208;DHT22;8720;48.488;9.202;2022-09-03T15:13:51;23.10;58.30
17208;DHT22;8720;48.488;9.202;2022-09-03T15:16:42;23.10;58.40
17208;DHT22;8720;48.488;9.202;2022-09-03T15:23:00;23.10;58.30
17208;DHT22;8720;48.488;9.202;2022-09-03T15:25:47;23.20;58.60
17208;DHT22;8720;48.488;9.202;2022-09-03T15:28:37;23.20;58.10
17208;DHT22;8720;48.488;9.202;2022-09-03T15:31:16;23.30;58.40
17208;DHT22;8720;48.488;9.202;2022-09-03T15:33:54;23.30;58.40
17208;DHT22;8720;48.488;9.202;2022-09-03T15:36:34;23.40;58.00
17208;DHT22;8720;48.488;9.202;2022-09-03T15:39:11;23.40;57.30
17208;DHT22;8720;48.488;9.202;2022-09-03T15:41:45;23.40;57.10
17208;DHT22;8720;48.488;9.202;2022-09-03T15:44:21;23.40;57.60
17208;DHT22;8720;48.488;9.202;2022-09-03T15:46:53;23.50;57.80
17208;DHT22;8720;48.488;9.202;2022-09-03T15:49:30;23.50;57.30
17208;DHT22;8720;48.488;9.202;2022-09-03T15:52:25;23.50;58.00
17208;DHT22;8720;48.488;9.202;2022-09-03T15:55:07;23.50;56.90
17208;DHT22;8720;48.488;9.202;2022-09-03T15:57:43;23.50;56.50
17208;DHT22;8720;48.488;9.202;2022-09-03T16:00:18;23.50;56.70
17208;DHT22;8720;48.488;9.202;2022-09-03T16:02:50;23.60;57.00
17208;DHT22;8720;48.488;9.202;2022-09-03T16:05:36;23.60;57.00
17208;DHT22;8720;48.488;9.202;2022-09-03T16:08:16;23.60;56.90
17208;DHT22;8720;48.488;9.202;2022-09-03T16:10:56;23.70;56.50
17208;DHT22;8720;48.488;9.202;2022-09-03T16:13:37;23.80;56.80
17208;DHT22;8720;48.488;9.202;2022-09-03T16:16:23;23.80;56.30
17208;DHT22;8720;48.488;9.202;2022-09-03T16:19:03;23.90;56.40
17208;DHT22;8720;48.488;9.202;2022-09-03T16:21:41;23.90;56.10
17208;DHT22;8720;48.488;9.202;2022-09-03T16:24:17;23.90;55.70
17208;DHT22;8720;48.488;9.202;2022-09-03T16:26:55;24.00;55.90
17208;DHT22;8720;48.488;9.202;2022-09-03T16:29:27;24.00;56.00
17208;DHT22;8720;48.488;9.202;2022-09-03T16:32:15;24.00;56.00
17208;DHT22;8720;48.488;9.202;2022-09-03T16:35:01;24.00;54.70
17208;DHT22;8720;48.488;9.202;2022-09-03T16:37:46;24.00;55.40
17208;DHT22;8720;48.488;9.202;2022-09-03T16:40:40;23.90;56.50
17208;DHT22;8720;48.488;9.202;2022-09-03T16:43:22;23.90;56.80
17208;DHT22;8720;48.488;9.202;2022-09-03T16:46:07;23.90;56.90
17208;DHT22;8720;48.488;9.202;2022-09-03T16:49:00;23.80;56.60
17208;DHT22;8720;48.488;9.202;2022-09-03T16:51:42;23.70;57.10
17208;DHT22;8720;48.488;9.202;2022-09-03T16:54:25;23.60;57.40
17208;DHT22;8720;48.488;9.202;2022-09-03T16:57:15;23.50;57.40